Time;durP1;ratioP1;P1;durP2;ratioP2;P2;SDS_P1;SDS_P2;PMS_P1;PMS_P2;Temp;Humidity;BMP_temperature;BMP_pressure;BME280_temperature;BME280_humidity;BME280_pressure;Samples;Min_cycle;Max_cycle;Signal;HPM_P1;HPM_P2
2024/04/03 00:04:22;;;;;;;3.78;2.00;;;11.70;94.40;;;;;;10266695;28;20221;-72
2024/04/03 00:09:25;;;;;;;5.65;2.50;;;11.70;94.50;;;;;;10268009;28;20224;-71
2024/04/03 00:14:29;;;;;;;3.72;2.28;;;11.70;94.70;;;;;;10266893;28;20342;-72
2024/04/03 00:19:33;;;;;;;4.88;2.42;;;11.70;94.90;;;;;;10266411;28;20228;-73
2024/04/03 00:24:36;;;;;;;6.97;2.60;;;11.70;95.00;;;;;;10268231;28;20233;-73
2024/04/03 00:29:39;;;;;;;9.23;3.40;;;11.70;95.70;;;;;;10275015;28;20228;-74
2024/04/03 00:34:42;;;;;;;6.10;3.33;;;11.70;95.60;;;;;;10280421;28;20295;-75
2024/04/03 00:39:45;;;;;;;5.32;3.35;;;11.80;95.40;;;;;;10281589;28;20236;-71
2024/04/03 00:44:50;;;;;;;5.07;2.72;;;11.70;95.60;;;;;;10281359;28;20232;-73
2024/04/03 00:49:52;;;;;;;7.50;3.28;;;11.70;95.70;;;;;;10280682;28;20228;-70
2024/04/03 00:54:55;;;;;;;7.15;3.65;;;11.70;95.90;;;;;;10281645;28;20380;-71
2024/04/03 00:59:59;;;;;;;5.82;2.70;;;11.70;96.20;;;;;;10281125;28;20240;-70
2024/04/03 01:05:02;;;;;;;5.25;2.80;;;11.70;96.20;;;;;;10280017;28;20307;-70
2024/04/03 01:10:06;;;;;;;8.55;3.35;;;11.80;96.40;;;;;;10279788;28;20290;-70
2024/04/03 01:15:11;;;;;;;6.25;3.20;;;11.80;96.50;;;;;;10280695;28;20208;-72
2024/04/03 01:20:13;;;;;;;4.53;2.50;;;11.80;96.40;;;;;;10279758;28;20232;-71
2024/04/03 01:25:17;;;;;;;4.03;2.20;;;11.70;96.70;;;;;;10278498;28;20962;-70
2024/04/03 01:30:20;;;;;;;5.50;2.20;;;11.70;97.00;;;;;;10279769;28;20228;-68
2024/04/03 01:35:22;;;;;;;3.92;2.40;;;11.70;97.20;;;;;;10281145;28;20667;-72
2024/04/03 01:40:26;;;;;;;7.03;2.25;;;11.70;97.10;;;;;;10276926;28;20228;-69
2024/04/03 01:45:29;;;;;;;5.03;2.10;;;11.70;97.00;;;;;;10274793;28;20299;-74
2024/04/03 01:50:37;;;;;;;4.85;2.17;;;11.70;97.00;;;;;;10272095;28;20256;-72
2024/04/03 01:55:41;;;;;;;6.00;3.22;;;11.70;97.10;;;;;;10274008;28;20299;-73
2024/04/03 02:00:44;;;;;;;4.53;2.65;;;11.80;97.10;;;;;;10271944;28;20295;-70
2024/04/03 02:05:47;;;;;;;6.72;2.35;;;11.80;97.20;;;;;;10271420;28;20642;-73
2024/04/03 02:10:52;;;;;;;6.80;2.30;;;11.80;97.30;;;;;;10271304;28;20217;-69
2024/04/03 02:15:55;;;;;;;3.15;2.10;;;11.80;97.30;;;;;;10271546;28;20209;-71
2024/04/03 02:20:57;;;;;;;6.47;2.03;;;11.80;97.40;;;;;;10270528;28;20291;-71
2024/04/03 02:26:01;;;;;;;5.32;2.10;;;11.80;97.30;;;;;;10269615;28;20228;-70
2024/04/03 02:31:04;;;;;;;3.40;2.03;;;11.80;98.00;;;;;;10271328;28;21442;-72
2024/04/03 02:36:10;;;;;;;5.18;2.28;;;11.80;98.10;;;;;;10269447;28;20605;-68
2024/04/03 02:41:14;;;;;;;6.25;2.35;;;11.80;98.20;;;;;;10272396;28;20299;-71
2024/04/03 02:46:17;;;;;;;5.75;1.88;;;11.80;98.40;;;;;;10269988;28;20225;-71
2024/04/03 02:51:19;;;;;;;4.03;1.75;;;11.80;98.20;;;;;;10268532;28;20754;-72
2024/04/03 02:56:23;;;;;;;5.72;1.90;;;11.80;98.40;;;;;;10267546;28;20213;-74
2024/04/03 03:01:26;;;;;;;6.43;2.10;;;11.80;98.60;;;;;;10267369;28;20213;-69
2024/04/03 03:06:29;;;;;;;3.65;2.00;;;11.80;98.10;;;;;;10268605;28;20229;-71
2024/04/03 03:11:33;;;;;;;8.48;2.10;;;11.80;98.40;;;;;;10299730;22;20697;-70
2024/04/03 03:16:35;;;;;;;7.50;2.33;;;11.90;98.50;;;;;;10277880;28;20274;-69
2024/04/03 03:21:38;;;;;;;3.65;1.75;;;11.80;98.50;;;;;;10277683;28;21086;-65
2024/04/03 03:26:42;;;;;;;5.75;2.58;;;11.80;98.30;;;;;;10274059;28;20275;-69
2024/04/03 03:31:44;;;;;;;4.88;2.22;;;11.80;98.20;;;;;;10273967;28;20225;-69
2024/04/03 03:36:47;;;;;;;6.95;1.85;;;11.80;98.50;;;;;;10277071;28;20201;-67
2024/04/03 03:41:51;;;;;;;5.45;1.90;;;11.80;98.50;;;;;;10273844;28;20237;-69
2024/04/03 03:46:54;;;;;;;5.18;2.10;;;11.90;98.20;;;;;;10274046;28;20237;-68
2024/04/03 03:57:17;;;;;;;6.45;3.95;;;11.80;98.50;;;;;;10273937;28;20580;-70
2024/04/03 04:02:20;;;;;;;7.05;4.97;;;11.80;98.50;;;;;;10272801;28;20274;-69
2024/04/03 04:07:23;;;;;;;11.10;5.60;;;11.80;98.40;;;;;;10272508;28;22002;-67
2024/04/03 04:12:27;;;;;;;10.95;6.38;;;11.80;98.10;;;;;;10274180;28;20228;-71
2024/04/03 04:17:30;;;;;;;9.27;5.95;;;11.80;98.30;;;;;;10276671;28;20319;-70
2024/04/03 04:22:33;;;;;;;10.88;5.25;;;11.80;98.50;;;;;;10273274;28;20213;-69
2024/04/03 04:27:37;;;;;;;5.70;3.83;;;11.80;98.40;;;;;;10273659;28;20279;-68
2024/04/03 04:32:39;;;;;;;7.32;4.20;;;11.80;98.40;;;;;;10272637;28;20208;-70
2024/04/03 04:37:42;;;;;;;8.80;4.35;;;11.80;98.60;;;;;;10274567;28;20302;-67
2024/04/03 04:42:46;;;;;;;13.38;4.90;;;11.80;98.30;;;;;;10274113;28;20216;-69
2024/04/03 04:47:49;;;;;;;25.60;9.38;;;11.80;98.40;;;;;;10271373;28;20241;-65
2024/04/03 04:52:51;;;;;;;12.32;4.93;;;11.70;98.40;;;;;;10272689;28;20212;-64
2024/04/03 04:57:55;;;;;;;8.90;4.07;;;11.70;98.60;;;;;;10272604;28;20213;-65
2024/04/03 05:02:57;;;;;;;7.90;3.70;;;11.80;98.50;;;;;;10271213;28;20213;-64
2024/04/03 05:08:03;;;;;;;7.78;4.03;;;11.70;98.40;;;;;;10270306;28;20236;-64
2024/04/03 05:13:07;;;;;;;8.85;5.07;;;11.80;98.30;;;;;;10268304;28;20442;-65
2024/04/03 05:18:10;;;;;;;8.18;4.57;;;12.00;99.20;;;;;;10276269;28;20228;-65
2024/04/03 05:23:13;;;;;;;8.73;4.07;;;12.00;98.60;;;;;;10277141;28;20561;-64
2024/04/03 05:28:17;;;;;;;8.40;4.70;;;11.90;98.40;;;;;;10278565;28;20652;-62
2024/04/03 05:33:20;;;;;;;8.32;5.30;;;11.90;98.40;;;;;;10277015;28;20212;-62
2024/04/03 05:38:23;;;;;;;6.70;4.32;;;11.90;98.40;;;;;;10276615;28;20236;-63
2024/04/03 05:43:28;;;;;;;9.65;4.95;;;11.80;98.40;;;;;;10279092;28;20212;-65
2024/04/03 05:48:31;;;;;;;11.63;5.30;;;11.80;98.40;;;;;;10280327;28;20625;-64
2024/04/03 05:53:35;;;;;;;7.65;5.18;;;11.80;98.40;;;;;;10277155;28;20587;-64
2024/04/03 05:58:39;;;;;;;9.18;4.75;;;11.80;98.70;;;;;;10277818;28;20220;-64
2024/04/03 06:03:41;;;;;;;10.65;5.35;;;11.80;98.50;;;;;;10276872;28;20290;-64
2024/04/03 06:08:44;;;;;;;8.60;4.72;;;11.80;98.50;;;;;;10278593;28;20241;-67
2024/04/03 06:13:48;;;;;;;9.00;3.47;;;11.90;98.70;;;;;;10278224;28;20209;-64
2024/04/03 06:18:50;;;;;;;11.50;3.83;;;11.90;98.80;;;;;;10276589;28;20232;-64
2024/04/03 06:23:53;;;;;;;8.75;4.03;;;11.90;98.90;;;;;;10276472;28;20232;-65
2024/04/03 06:28:57;;;;;;;7.28;4.32;;;12.00;98.80;;;;;;10276533;28;20225;-64
2024/04/03 06:34:00;;;;;;;12.13;5.57;;;12.00;99.00;;;;;;10277168;28;20205;-64
2024/04/03 06:39:03;;;;;;;11.35;4.95;;;12.00;98.90;;;;;;10276966;28;20228;-66
2024/04/03 06:44:07;;;;;;;8.85;4.22;;;12.10;98.80;;;;;;10274756;28;20283;-64
2024/04/03 06:49:11;;;;;;;9.18;3.35;;;12.20;98.50;;;;;;10274650;28;20288;-64
2024/04/03 06:54:14;;;;;;;8.48;3.40;;;12.20;98.80;;;;;;10274848;28;20213;-64
2024/04/03 06:59:18;;;;;;;7.32;2.30;;;12.20;98.40;;;;;;10274191;28;20711;-64
2024/04/03 07:04:20;;;;;;;5.97;2.30;;;12.30;98.80;;;;;;10275334;28;20789;-64
2024/04/03 07:09:23;;;;;;;8.55;3.00;;;12.30;98.80;;;;;;10274726;28;20233;-64
2024/04/03 07:14:27;;;;;;;6.20;2.50;;;12.30;98.60;;;;;;10275655;28;20201;-64
2024/04/03 07:19:30;;;;;;;5.68;2.60;;;12.40;98.40;;;;;;10275543;28;20229;-63
2024/04/03 07:24:32;;;;;;;9.77;5.03;;;12.40;98.30;;;;;;10273399;28;20574;-63
2024/04/03 07:29:36;;;;;;;6.10;4.57;;;12.50;98.40;;;;;;10274420;28;20233;-63
2024/04/03 07:34:39;;;;;;;7.75;4.10;;;12.50;98.20;;;;;;10274601;28;20298;-64
2024/04/03 07:39:41;;;;;;;6.43;3.28;;;12.60;98.30;;;;;;10268890;28;20302;-63
2024/04/03 07:44:46;;;;;;;4.05;1.95;;;12.60;98.30;;;;;;10276750;28;20228;-64
2024/04/03 07:49:52;;;;;;;5.25;1.88;;;12.60;98.10;;;;;;10277305;28;20313;-63
2024/04/03 07:54:55;;;;;;;7.53;1.70;;;12.60;98.00;;;;;;10276878;28;20291;-63
2024/04/03 07:59:59;;;;;;;6.55;2.00;;;12.60;98.00;;;;;;10274677;28;20228;-65
2024/04/03 08:05:01;;;;;;;4.78;1.90;;;12.60;97.90;;;;;;10275666;28;20286;-72
2024/04/03 08:10:06;;;;;;;3.67;1.50;;;12.70;97.90;;;;;;10273001;28;20244;-63
2024/04/03 08:15:13;;;;;;;3.97;1.42;;;12.70;98.00;;;;;;10269527;28;20198;-62
2024/04/03 08:20:16;;;;;;;4.07;1.63;;;12.70;97.70;;;;;;10268807;28;20265;-64
2024/04/03 08:25:19;;;;;;;3.83;1.65;;;12.80;97.70;;;;;;10272746;28;20295;-63
2024/04/03 08:30:23;;;;;;;4.35;1.52;;;12.80;97.70;;;;;;10269474;28;20255;-64
2024/04/03 08:35:25;;;;;;;4.68;2.30;;;12.90;97.40;;;;;;10273303;28;20209;-68
2024/04/03 08:40:28;;;;;;;3.45;1.60;;;13.00;97.80;;;;;;10270149;28;20477;-63
2024/04/03 08:45:34;;;;;;;5.50;1.80;;;13.00;97.90;;;;;;10272750;28;20233;-64
2024/04/03 08:50:37;;;;;;;5.07;1.70;;;13.10;97.50;;;;;;10273210;28;20786;-63
2024/04/03 08:55:40;;;;;;;3.72;1.65;;;13.10;97.40;;;;;;10276798;28;20274;-63
2024/04/03 09:00:46;;;;;;;5.65;1.80;;;13.20;97.50;;;;;;10277418;28;20229;-63
2024/04/03 09:05:52;;;;;;;3.53;1.80;;;13.20;97.40;;;;;;10278962;28;20236;-63
2024/04/03 09:10:56;;;;;;;2.97;1.40;;;13.20;97.40;;;;;;10292835;22;20376;-65
2024/04/03 09:16:01;;;;;;;5.53;1.60;;;13.20;97.60;;;;;;10267588;28;20209;-66
2024/04/03 09:21:04;;;;;;;3.25;1.40;;;13.20;97.40;;;;;;10246773;28;20225;-64
2024/04/03 09:26:07;;;;;;;2.60;1.67;;;13.20;97.50;;;;;;10235685;28;20221;-64
2024/04/03 09:31:11;;;;;;;2.72;1.50;;;13.20;97.40;;;;;;10238631;28;20241;-64
2024/04/03 09:36:14;;;;;;;2.97;1.20;;;13.20;97.60;;;;;;10240905;28;20206;-64
2024/04/03 09:41:17;;;;;;;2.90;1.27;;;13.30;97.40;;;;;;10241379;28;20307;-65
2024/04/03 09:46:23;;;;;;;2.95;1.13;;;13.40;97.40;;;;;;10239952;28;20302;-65
2024/04/03 09:51:26;;;;;;;3.15;1.50;;;13.40;97.30;;;;;;10239252;28;20234;-65
2024/04/03 09:56:29;;;;;;;2.47;1.00;;;13.50;97.10;;;;;;10240825;28;21377;-64
2024/04/03 10:01:35;;;;;;;3.55;1.20;;;13.50;97.00;;;;;;10238366;28;20260;-65
2024/04/03 10:06:39;;;;;;;2.63;1.20;;;13.60;96.90;;;;;;10237679;28;20233;-65
2024/04/03 10:11:47;;;;;;;2.05;1.10;;;13.60;97.00;;;;;;10236973;28;20245;-65
2024/04/03 10:16:52;;;;;;;2.72;0.98;;;13.70;96.90;;;;;;10238500;28;20213;-65
2024/04/03 10:21:56;;;;;;;2.42;1.23;;;13.80;96.50;;;;;;10239683;28;20319;-65
2024/04/03 10:26:58;;;;;;;1.42;0.98;;;13.90;96.70;;;;;;10237333;28;20237;-67
2024/04/03 10:32:02;;;;;;;2.05;0.90;;;13.90;96.10;;;;;;10237677;28;20237;-65
2024/04/03 10:37:05;;;;;;;1.45;0.70;;;13.90;96.10;;;;;;10236711;28;21383;-67
2024/04/03 10:42:08;;;;;;;2.35;0.93;;;14.00;96.10;;;;;;10234389;28;20272;-65
2024/04/03 10:47:13;;;;;;;1.10;0.70;;;14.10;96.00;;;;;;10236417;28;20234;-65
2024/04/03 10:52:16;;;;;;;1.13;0.75;;;14.10;96.00;;;;;;10234639;28;20225;-66
2024/04/03 10:57:19;;;;;;;1.33;0.70;;;14.10;95.90;;;;;;10236877;28;21543;-65
2024/04/03 11:02:22;;;;;;;1.83;0.90;;;14.20;95.60;;;;;;10226898;28;20272;-65
2024/04/03 11:07:25;;;;;;;1.52;0.95;;;14.20;95.80;;;;;;10233447;28;20232;-65
2024/04/03 11:12:28;;;;;;;1.65;1.13;;;14.20;95.10;;;;;;10233584;28;20241;-65
2024/04/03 11:17:32;;;;;;;1.70;0.80;;;14.20;95.50;;;;;;10234451;28;20268;-65
2024/04/03 11:22:34;;;;;;;3.35;1.00;;;14.20;94.80;;;;;;10234059;28;20233;-64
2024/04/03 11:27:37;;;;;;;2.42;0.70;;;14.20;94.90;;;;;;10234923;28;20241;-66
2024/04/03 11:32:41;;;;;;;2.05;0.70;;;14.20;94.70;;;;;;10232719;28;20602;-64
2024/04/03 11:37:44;;;;;;;2.25;0.68;;;14.10;94.50;;;;;;10233244;28;20217;-65
2024/04/03 11:42:46;;;;;;;2.03;0.77;;;14.20;95.00;;;;;;10232872;28;20268;-66
2024/04/03 11:47:51;;;;;;;2.67;0.90;;;14.40;94.50;;;;;;10228601;28;20307;-67
2024/04/03 11:52:54;;;;;;;2.55;0.70;;;14.50;94.30;;;;;;10226088;28;20696;-65
2024/04/03 11:57:57;;;;;;;0.73;0.60;;;14.60;94.20;;;;;;10227072;28;20209;-66
2024/04/03 12:03:01;;;;;;;1.80;0.77;;;14.70;94.10;;;;;;10228249;28;20237;-66
2024/04/03 12:08:04;;;;;;;5.30;3.35;;;14.70;94.20;;;;;;10229360;28;21224;-64
2024/04/03 12:13:07;;;;;;;3.45;3.15;;;14.70;94.30;;;;;;10227575;28;20221;-64
2024/04/03 12:18:12;;;;;;;3.78;2.60;;;14.70;94.10;;;;;;10227508;28;20240;-65
2024/04/03 12:23:16;;;;;;;1.45;1.08;;;14.60;94.00;;;;;;10231039;28;20213;-65
2024/04/03 12:28:18;;;;;;;0.50;0.50;;;14.50;93.80;;;;;;10229611;28;20237;-66
2024/04/03 12:33:22;;;;;;;2.10;0.60;;;14.40;93.30;;;;;;10234304;28;20510;-66
2024/04/03 12:38:25;;;;;;;1.85;0.80;;;14.30;93.40;;;;;;10232959;28;20230;-65
2024/04/03 12:43:27;;;;;;;0.55;0.50;;;14.40;93.80;;;;;;10232941;28;20353;-65
2024/04/03 12:48:32;;;;;;;1.10;0.65;;;14.40;94.20;;;;;;10234376;28;20236;-64
2024/04/03 12:53:35;;;;;;;1.58;0.52;;;14.40;94.20;;;;;;10230176;28;20217;-65
2024/04/03 12:58:37;;;;;;;2.20;0.65;;;14.50;94.40;;;;;;10231286;28;20233;-64
2024/04/03 13:03:41;;;;;;;1.10;0.70;;;14.60;94.50;;;;;;10233811;28;20835;-65
2024/04/03 13:08:44;;;;;;;1.80;0.57;;;14.50;94.10;;;;;;10232432;28;20241;-66
2024/04/03 13:13:46;;;;;;;1.10;0.70;;;14.50;94.30;;;;;;10233279;28;20242;-67
2024/04/03 13:18:51;;;;;;;0.63;0.63;;;14.40;94.70;;;;;;10230489;28;20288;-66
2024/04/03 13:23:53;;;;;;;0.80;0.77;;;14.30;94.20;;;;;;10235417;28;20280;-66
2024/04/03 13:28:56;;;;;;;1.88;0.90;;;14.20;94.60;;;;;;10233282;28;21650;-67
2024/04/03 13:34:01;;;;;;;0.50;0.50;;;14.10;94.70;;;;;;10232751;28;20222;-65
2024/04/03 13:39:07;;;;;;;8.88;4.63;;;14.00;94.60;;;;;;10236382;28;21518;-63
2024/04/03 13:44:09;;;;;;;24.40;12.48;;;13.90;94.80;;;;;;10240025;28;20265;-66
2024/04/03 13:49:15;;;;;;;4.40;2.80;;;13.90;94.90;;;;;;10240081;28;21723;-67
2024/04/03 13:54:18;;;;;;;7.78;6.97;;;13.90;95.00;;;;;;10240957;28;20282;-66
2024/04/03 13:59:22;;;;;;;2.00;1.30;;;13.90;95.00;;;;;;10240131;28;20329;-66
2024/04/03 14:04:27;;;;;;;1.52;0.95;;;13.80;95.10;;;;;;10239387;28;21547;-65
2024/04/03 14:09:29;;;;;;;1.33;0.90;;;13.80;95.20;;;;;;10238240;28;20241;-66
2024/04/03 14:14:32;;;;;;;1.63;1.40;;;13.90;95.20;;;;;;10234783;28;20595;-66
2024/04/03 14:19:36;;;;;;;1.00;0.80;;;13.90;95.30;;;;;;10233848;28;20407;-66
2024/04/03 14:24:38;;;;;;;0.73;0.70;;;13.90;95.30;;;;;;10237156;28;20213;-65
2024/04/03 14:29:42;;;;;;;1.63;1.00;;;13.90;95.40;;;;;;10235841;28;20886;-64
2024/04/03 14:34:46;;;;;;;1.77;0.70;;;13.90;95.50;;;;;;10237298;28;20209;-64
2024/04/03 14:39:49;;;;;;;1.63;0.95;;;13.90;95.60;;;;;;10238909;28;21593;-65
2024/04/03 14:44:51;;;;;;;1.85;0.80;;;13.90;95.60;;;;;;10235520;28;20205;-66
2024/04/03 14:49:55;;;;;;;1.33;0.98;;;14.00;95.50;;;;;;10233388;28;21212;-67
2024/04/03 14:54:58;;;;;;;3.30;0.85;;;14.10;95.70;;;;;;10235237;28;20205;-65
2024/04/03 15:00:03;;;;;;;1.40;0.60;;;14.30;95.70;;;;;;10233765;28;20217;-67
2024/04/03 15:05:07;;;;;;;1.92;0.70;;;14.40;95.40;;;;;;10235064;28;21329;-66
2024/04/03 15:10:09;;;;;;;0.55;0.50;;;14.40;95.20;;;;;;10267632;22;20290;-62
2024/04/03 15:15:12;;;;;;;1.52;0.75;;;14.40;95.10;;;;;;10260293;28;20566;-63
2024/04/03 15:20:16;;;;;;;1.65;0.82;;;14.40;95.40;;;;;;10249341;28;20229;-64
2024/04/03 15:25:18;;;;;;;1.77;0.80;;;14.70;95.40;;;;;;10231215;28;20349;-63
2024/04/03 15:30:21;;;;;;;0.88;0.55;;;15.30;94.90;;;;;;10230580;28;20234;-64
2024/04/03 15:35:25;;;;;;;0.75;0.63;;;15.80;94.60;;;;;;10226133;28;20758;-64
2024/04/03 15:40:28;;;;;;;0.88;0.40;;;16.50;94.00;;;;;;10229110;28;20233;-63
2024/04/03 15:45:31;;;;;;;1.50;0.60;;;17.20;93.50;;;;;;10232438;28;20263;-65
2024/04/03 15:50:35;;;;;;;0.90;0.55;;;17.80;93.00;;;;;;10234228;28;20237;-64
2024/04/03 15:55:40;;;;;;;0.98;0.50;;;18.40;92.30;;;;;;10228523;28;20228;-65
2024/04/03 16:00:43;;;;;;;3.10;0.65;;;18.70;92.20;;;;;;10227404;28;20910;-63
2024/04/03 16:05:47;;;;;;;0.98;0.60;;;19.00;91.90;;;;;;10231205;28;20536;-64
2024/04/03 16:10:50;;;;;;;1.25;0.60;;;19.10;91.50;;;;;;10226989;28;21473;-65
2024/04/03 16:15:53;;;;;;;0.80;0.70;;;18.90;91.40;;;;;;10220173;28;20213;-64
2024/04/03 16:20:57;;;;;;;12.15;5.82;;;18.40;91.20;;;;;;10219909;28;20233;-65
2024/04/03 16:26:00;;;;;;;4.68;1.77;;;18.00;91.30;;;;;;10229802;28;20206;-66
2024/04/03 16:31:02;;;;;;;5.10;1.48;;;17.50;91.40;;;;;;10223342;28;20241;-64
2024/04/03 16:36:06;;;;;;;6.43;3.47;;;17.20;91.60;;;;;;10230779;28;21238;-63
2024/04/03 16:41:09;;;;;;;4.85;2.88;;;17.00;92.00;;;;;;10232020;28;20225;-65
2024/04/03 16:46:15;;;;;;;6.63;4.07;;;16.80;92.30;;;;;;10230771;28;20209;-63
2024/04/03 16:51:19;;;;;;;6.75;4.03;;;16.60;92.50;;;;;;10228658;28;20296;-64
2024/04/03 16:56:21;;;;;;;11.25;7.13;;;16.40;92.50;;;;;;10228158;28;20213;-66
2024/04/03 17:01:26;;;;;;;9.45;6.65;;;16.20;92.80;;;;;;10230335;28;20233;-66
2024/04/03 17:06:31;;;;;;;9.23;5.20;;;16.10;93.10;;;;;;10228911;28;20214;-66
2024/04/03 17:11:33;;;;;;;11.90;5.88;;;15.90;93.00;;;;;;10231622;28;20311;-64
2024/04/03 17:16:37;;;;;;;7.97;5.32;;;15.80;93.10;;;;;;10238221;28;20209;-65
2024/04/03 17:21:42;;;;;;;5.03;3.22;;;15.80;93.20;;;;;;10239199;28;21956;-64
2024/04/03 17:26:44;;;;;;;2.05;1.75;;;15.70;93.30;;;;;;10236874;28;20287;-65
2024/04/03 17:31:47;;;;;;;7.05;6.35;;;15.50;93.50;;;;;;10240429;28;21421;-66
2024/04/03 17:36:52;;;;;;;2.65;2.40;;;15.40;93.80;;;;;;10238171;28;20213;-67
2024/04/03 17:41:55;;;;;;;1.10;0.80;;;15.30;94.10;;;;;;10238534;28;20264;-65
2024/04/03 17:46:59;;;;;;;2.05;1.80;;;15.20;94.40;;;;;;10237805;28;20298;-65
2024/04/03 17:52:03;;;;;;;3.92;1.50;;;15.00;94.60;;;;;;10238565;28;20315;-65
2024/04/03 17:57:06;;;;;;;2.13;1.20;;;14.90;94.80;;;;;;10236845;28;20215;-65
2024/04/03 18:02:09;;;;;;;2.17;1.40;;;14.80;94.90;;;;;;10234743;28;20253;-64
2024/04/03 18:07:13;;;;;;;3.05;1.50;;;14.70;95.00;;;;;;10240123;28;20210;-65
2024/04/03 18:12:15;;;;;;;2.03;1.25;;;14.60;95.10;;;;;;10248990;28;20237;-65
2024/04/03 18:17:19;;;;;;;2.03;1.10;;;14.50;95.50;;;;;;10236863;28;20237;-60
2024/04/03 18:22:23;;;;;;;1.40;1.00;;;14.40;95.70;;;;;;10237549;28;20276;-60
2024/04/03 18:27:25;;;;;;;1.77;0.93;;;14.40;96.10;;;;;;10236563;28;20257;-61
2024/04/03 18:32:28;;;;;;;2.67;1.00;;;14.30;96.30;;;;;;10236030;28;20233;-61
2024/04/03 18:37:34;;;;;;;2.00;1.00;;;14.20;96.10;;;;;;10234808;28;20202;-61
2024/04/03 18:42:37;;;;;;;2.92;1.25;;;14.10;96.30;;;;;;10234841;28;20268;-61
2024/04/03 18:47:40;;;;;;;3.85;1.58;;;14.10;96.80;;;;;;10234687;28;21575;-61
2024/04/03 18:52:46;;;;;;;2.63;1.70;;;14.00;96.80;;;;;;10235999;28;20241;-62
2024/04/03 18:57:48;;;;;;;2.95;1.65;;;14.00;96.60;;;;;;10233484;28;20206;-62
2024/04/03 19:02:51;;;;;;;3.72;1.60;;;13.90;96.70;;;;;;10233549;28;20237;-62
2024/04/03 19:07:55;;;;;;;2.70;1.40;;;13.90;96.80;;;;;;10232725;28;20291;-62
2024/04/03 19:13:00;;;;;;;3.13;1.77;;;13.80;96.80;;;;;;10234564;28;20838;-61
2024/04/03 19:18:03;;;;;;;2.35;1.40;;;13.70;96.50;;;;;;10231767;28;21865;-59
2024/04/03 19:23:07;;;;;;;2.00;1.33;;;13.70;96.50;;;;;;10231355;28;20237;-60
2024/04/03 19:28:10;;;;;;;2.63;1.15;;;13.60;96.70;;;;;;10233152;28;20224;-59
2024/04/03 19:33:12;;;;;;;3.15;0.80;;;13.50;96.00;;;;;;10231242;28;20276;-61
2024/04/03 19:38:16;;;;;;;2.00;0.90;;;13.50;95.10;;;;;;10231252;28;20213;-61
2024/04/03 19:43:21;;;;;;;4.53;1.55;;;13.40;95.00;;;;;;10230919;28;21580;-60
2024/04/03 19:48:24;;;;;;;2.75;1.40;;;13.40;95.10;;;;;;10234572;28;20516;-59
2024/04/03 19:53:33;;;;;;;1.98;1.40;;;13.30;95.20;;;;;;10234372;28;20213;-59
2024/04/03 19:58:36;;;;;;;3.38;1.48;;;13.30;95.20;;;;;;10235894;28;20264;-59
2024/04/03 20:03:39;;;;;;;3.22;1.30;;;13.20;94.50;;;;;;10231124;28;20345;-59
2024/04/03 20:08:43;;;;;;;3.10;1.00;;;13.20;94.60;;;;;;10230838;28;20233;-58
2024/04/03 20:13:45;;;;;;;2.85;0.90;;;13.20;93.60;;;;;;10232556;28;20214;-59
2024/04/03 20:18:48;;;;;;;1.90;0.70;;;13.20;92.50;;;;;;10232844;28;20232;-58
2024/04/03 20:23:52;;;;;;;2.10;0.80;;;13.10;92.00;;;;;;10231385;28;20205;-60
2024/04/03 20:28:54;;;;;;;1.88;0.82;;;13.10;92.30;;;;;;10228702;28;20233;-60
2024/04/03 20:33:57;;;;;;;2.20;0.82;;;13.10;92.20;;;;;;10231469;28;20225;-59
2024/04/03 20:39:03;;;;;;;2.25;0.98;;;13.10;92.20;;;;;;10231106;28;20225;-62
2024/04/03 20:44:06;;;;;;;3.90;1.30;;;13.20;92.30;;;;;;10231728;28;20295;-60
2024/04/03 20:49:08;;;;;;;3.42;1.20;;;13.20;93.00;;;;;;10238239;28;20237;-60
2024/04/03 20:54:12;;;;;;;4.18;0.93;;;13.10;92.50;;;;;;10241016;28;20275;-58
2024/04/03 20:59:15;;;;;;;2.38;0.80;;;13.10;92.00;;;;;;10239345;28;20233;-60
2024/04/03 21:04:18;;;;;;;2.53;0.70;;;13.10;91.90;;;;;;10239005;28;20210;-60
2024/04/03 21:09:22;;;;;;;3.80;0.90;;;13.00;91.50;;;;;;10236745;28;20241;-59
2024/04/03 21:14:24;;;;;;;2.28;0.93;;;13.00;91.50;;;;;;10239838;28;20209;-59
2024/04/03 21:19:27;;;;;;;5.00;0.82;;;13.00;91.80;;;;;;10238144;28;20316;-59
2024/04/03 21:24:32;;;;;;;2.28;0.82;;;13.00;91.70;;;;;;10240461;28;20287;-60
2024/04/03 21:29:35;;;;;;;3.10;0.90;;;13.00;91.30;;;;;;10239069;28;20233;-60
2024/04/03 21:34:38;;;;;;;3.33;1.10;;;12.90;90.30;;;;;;10240684;28;20347;-58
2024/04/03 21:39:45;;;;;;;3.97;0.95;;;12.80;90.30;;;;;;10240230;28;20230;-59
2024/04/03 21:44:47;;;;;;;5.22;0.93;;;12.80;90.60;;;;;;10237488;28;20206;-59
2024/04/03 21:49:50;;;;;;;2.70;0.73;;;12.80;90.00;;;;;;10236812;28;21419;-60
2024/04/03 21:54:54;;;;;;;3.83;1.05;;;12.70;89.60;;;;;;10236402;28;20210;-60
2024/04/03 21:59:57;;;;;;;2.95;0.90;;;12.60;90.00;;;;;;10234697;28;20233;-60
2024/04/03 22:05:00;;;;;;;2.17;0.63;;;12.60;90.00;;;;;;10235364;28;20218;-60
2024/04/03 22:10:04;;;;;;;4.18;0.70;;;12.60;89.80;;;;;;10237423;28;20237;-61
2024/04/03 22:15:07;;;;;;;1.95;0.95;;;12.60;90.10;;;;;;10236595;28;20340;-60
2024/04/03 22:20:10;;;;;;;2.88;0.60;;;12.60;90.20;;;;;;10236543;28;20241;-61
2024/04/03 22:25:14;;;;;;;5.05;0.95;;;12.60;90.00;;;;;;10234581;28;20213;-60
2024/04/03 22:30:17;;;;;;;4.53;1.05;;;12.60;90.00;;;;;;10234214;28;20233;-61
2024/04/03 22:35:19;;;;;;;4.38;0.85;;;12.60;90.20;;;;;;10236356;28;20209;-61
2024/04/03 22:40:23;;;;;;;3.53;1.02;;;12.50;89.60;;;;;;10237781;28;20226;-62
2024/04/03 22:45:26;;;;;;;4.43;1.00;;;12.50;90.10;;;;;;10236156;28;20205;-60
2024/04/03 22:50:28;;;;;;;3.25;1.15;;;12.50;89.90;;;;;;10236331;28;20315;-62
2024/04/03 22:55:32;;;;;;;4.10;0.93;;;12.50;90.10;;;;;;10234582;28;21981;-62
2024/04/03 23:00:35;;;;;;;3.15;1.00;;;12.40;89.20;;;;;;10232186;28;20218;-62
2024/04/03 23:05:37;;;;;;;3.20;0.90;;;12.40;89.60;;;;;;10233303;28;20283;-62
2024/04/03 23:10:41;;;;;;;5.55;1.10;;;12.40;90.00;;;;;;10232966;28;20245;-62
2024/04/03 23:15:44;;;;;;;6.38;1.00;;;12.30;90.00;;;;;;10233939;28;20247;-61
2024/04/03 23:20:47;;;;;;;3.08;1.00;;;12.30;89.20;;;;;;10234066;28;22203;-60
2024/04/03 23:25:51;;;;;;;2.58;1.13;;;12.30;90.30;;;;;;10232827;28;20213;-61
2024/04/03 23:30:54;;;;;;;5.47;1.10;;;12.20;90.40;;;;;;10232879;28;20238;-61
2024/04/03 23:35:58;;;;;;;1.90;0.80;;;12.30;90.60;;;;;;10231291;28;20268;-61
2024/04/03 23:41:02;;;;;;;4.70;1.08;;;12.20;89.80;;;;;;10233611;28;20233;-60
2024/04/03 23:46:05;;;;;;;6.20;1.58;;;12.10;90.00;;;;;;10232261;28;20209;-60
2024/04/03 23:51:07;;;;;;;5.55;1.02;;;12.10;90.00;;;;;;10230301;28;20234;-61
2024/04/03 23:56:11;;;;;;;4.75;1.17;;;12.10;90.00;;;;;;10231587;28;20287;-60
